createdAt,value
2023-05-17T00:00:54.497Z,62.47
2023-05-17T00:01:54.487Z,62.47
2023-05-17T00:02:54.504Z,62.47
2023-05-17T00:03:54.459Z,62.47
2023-05-17T00:04:54.491Z,62.47
2023-05-17T00:05:54.474Z,62.47
2023-05-17T00:06:54.419Z,62.57
2023-05-17T00:07:54.407Z,62.57
2023-05-17T00:08:54.402Z,62.57
2023-05-17T00:09:54.399Z,62.57
2023-05-17T00:10:54.394Z,62.57
2023-05-17T00:11:54.361Z,62.57
2023-05-17T00:12:54.342Z,62.57
2023-05-17T00:13:54.331Z,62.57
2023-05-17T00:14:54.327Z,62.57
2023-05-17T00:15:54.308Z,62.57
2023-05-17T00:16:54.292Z,62.57
2023-05-17T00:17:54.386Z,62.57
2023-05-17T00:18:54.306Z,62.57
2023-05-17T00:19:54.359Z,62.67
2023-05-17T00:20:54.236Z,62.67
2023-05-17T00:22:29.185Z,62.67
2023-05-17T00:23:29.162Z,62.67
2023-05-17T00:24:29.149Z,62.67
2023-05-17T00:25:29.492Z,62.67
2023-05-17T00:26:29.237Z,62.67
2023-05-17T00:27:29.110Z,62.67
2023-05-17T00:28:29.098Z,62.67
2023-05-17T00:29:29.082Z,62.67
2023-05-17T00:30:29.075Z,62.67
2023-05-17T00:31:29.063Z,62.67
2023-05-17T00:32:29.091Z,62.67
2023-05-17T00:33:29.039Z,62.78
2023-05-17T00:34:29.036Z,62.78
2023-05-17T00:35:29.293Z,62.78
2023-05-17T00:36:28.995Z,62.78
2023-05-17T00:37:28.978Z,62.78
2023-05-17T00:38:28.972Z,62.78
2023-05-17T00:39:28.963Z,62.78
2023-05-17T00:40:28.941Z,62.78
2023-05-17T00:41:28.924Z,62.88
2023-05-17T00:42:29.026Z,62.88
2023-05-17T00:43:28.901Z,62.88
2023-05-17T00:44:28.887Z,62.88
2023-05-17T00:45:29.117Z,62.88
2023-05-17T00:46:28.861Z,62.88
2023-05-17T00:47:28.971Z,62.88
2023-05-17T00:48:28.964Z,62.88
2023-05-17T00:49:28.818Z,62.88
2023-05-17T00:50:28.806Z,62.88
2023-05-17T00:51:28.798Z,62.98
2023-05-17T00:52:28.789Z,62.88
2023-05-17T00:53:28.798Z,62.88
2023-05-17T00:54:28.781Z,62.98
2023-05-17T00:55:28.961Z,62.98
2023-05-17T00:56:28.741Z,62.98
2023-05-17T00:57:28.722Z,63.01
2023-05-17T00:58:28.869Z,62.98
2023-05-17T00:59:28.696Z,62.98
2023-05-17T01:00:28.681Z,62.98
2023-05-17T01:01:28.669Z,62.98
2023-05-17T01:02:28.727Z,63.08
2023-05-17T01:03:28.826Z,62.98
2023-05-17T01:04:28.656Z,63.08
2023-05-17T01:05:28.911Z,63.08
2023-05-17T01:06:28.605Z,63.08
2023-05-17T01:07:28.591Z,63.11
2023-05-17T01:08:28.577Z,63.11
2023-05-17T01:09:28.569Z,63.11
2023-05-17T01:10:28.552Z,63.11
2023-05-17T01:11:28.554Z,63.11
2023-05-17T01:12:28.530Z,63.22
2023-05-17T01:13:28.514Z,63.18
2023-05-17T01:14:28.619Z,63.22
2023-05-17T01:15:28.712Z,63.22
2023-05-17T01:16:28.477Z,63.22
2023-05-17T01:17:28.544Z,63.22
2023-05-17T01:18:28.503Z,63.22
2023-05-17T01:19:28.514Z,63.22
2023-05-17T01:20:28.614Z,63.22
2023-05-17T01:21:28.413Z,63.22
2023-05-17T01:22:28.416Z,63.22
2023-05-17T01:23:28.385Z,63.22
2023-05-17T01:24:28.369Z,63.22
2023-05-17T01:25:28.585Z,63.31
2023-05-17T01:26:28.344Z,63.31
2023-05-17T01:27:28.332Z,63.31
2023-05-17T01:28:28.339Z,63.31
2023-05-17T01:29:28.307Z,63.31
2023-05-17T01:30:28.318Z,63.31
2023-05-17T01:31:28.282Z,63.31
2023-05-17T01:32:28.379Z,63.31
2023-05-17T01:33:28.463Z,63.31
2023-05-17T01:34:28.242Z,63.31
2023-05-17T01:35:28.471Z,63.42
2023-05-17T01:36:28.215Z,63.42
2023-05-17T01:37:28.204Z,63.42
2023-05-17T01:38:28.191Z,63.31
2023-05-17T01:39:28.179Z,63.42
2023-05-17T01:40:28.170Z,63.42
2023-05-17T01:41:28.159Z,63.42
2023-05-17T01:42:28.150Z,63.31
2023-05-17T01:44:03.141Z,63.42
2023-05-17T01:45:03.076Z,63.42
2023-05-17T01:46:03.245Z,63.42
2023-05-17T01:47:03.037Z,63.42
2023-05-17T01:48:03.062Z,63.42
2023-05-17T01:49:03.162Z,63.42
2023-05-17T01:50:03.003Z,63.42
2023-05-17T01:51:02.998Z,63.42
2023-05-17T01:52:02.987Z,63.42
2023-05-17T01:53:02.960Z,63.42
2023-05-17T01:54:02.947Z,63.42
2023-05-17T01:55:02.932Z,63.42
2023-05-17T01:56:02.917Z,63.42
2023-05-17T01:57:02.904Z,63.42
2023-05-17T01:58:02.892Z,63.42
2023-05-17T01:59:02.875Z,63.42
2023-05-17T02:00:02.880Z,63.42
2023-05-17T02:01:02.848Z,63.42
2023-05-17T02:02:02.878Z,63.42
2023-05-17T02:03:02.849Z,63.42
2023-05-17T02:04:02.865Z,63.42
2023-05-17T02:05:02.817Z,63.42
2023-05-17T02:06:02.784Z,63.42
2023-05-17T02:07:02.768Z,63.42
2023-05-17T02:08:02.753Z,63.42
2023-05-17T02:09:02.857Z,63.42
2023-05-17T02:10:02.728Z,63.42
2023-05-17T02:11:02.718Z,63.42
2023-05-17T02:12:02.701Z,63.42
2023-05-17T02:13:02.699Z,63.42
2023-05-17T02:14:02.680Z,63.42
2023-05-17T02:16:17.576Z,63.42
2023-05-17T02:17:11.804Z,63.42
2023-05-17T02:18:11.637Z,63.42
2023-05-17T02:19:11.589Z,63.42
2023-05-17T02:20:11.514Z,63.42
2023-05-17T02:21:11.517Z,63.42
2023-05-17T02:22:11.484Z,63.42
2023-05-17T02:23:11.472Z,63.42
2023-05-17T02:24:11.462Z,63.42
2023-05-17T02:25:11.451Z,63.42
2023-05-17T02:26:11.447Z,63.42
2023-05-17T02:27:11.418Z,63.42
2023-05-17T02:28:11.400Z,63.52
2023-05-17T02:29:17.408Z,63.52
2023-05-17T02:30:11.380Z,63.52
2023-05-17T02:31:11.362Z,63.42
2023-05-17T02:32:11.348Z,63.42
2023-05-17T02:33:11.558Z,63.42
2023-05-17T02:34:11.365Z,63.42
2023-05-17T02:35:11.310Z,63.42
2023-05-17T02:36:11.296Z,63.42
2023-05-17T02:37:11.281Z,63.52
2023-05-17T02:38:11.298Z,63.42
2023-05-17T02:39:11.259Z,63.52
2023-05-17T02:40:11.302Z,63.52
2023-05-17T02:41:11.224Z,63.52
2023-05-17T02:42:11.224Z,63.52
2023-05-17T02:43:11.211Z,63.52
2023-05-17T02:44:11.184Z,63.52
2023-05-17T02:45:11.172Z,63.52
2023-05-17T02:46:11.156Z,63.52
2023-05-17T02:47:11.191Z,63.52
2023-05-17T02:48:11.169Z,63.52
2023-05-17T02:49:11.217Z,63.52
2023-05-17T02:50:11.110Z,63.52
2023-05-17T02:51:11.087Z,63.52
2023-05-17T02:52:11.076Z,63.52
2023-05-17T02:53:11.079Z,63.52
2023-05-17T02:54:11.047Z,63.52
2023-05-17T02:55:11.042Z,63.52
2023-05-17T02:56:11.020Z,63.52
2023-05-17T02:57:11.010Z,63.52
2023-05-17T02:58:11.007Z,63.52
2023-05-17T02:59:10.983Z,63.52
2023-05-17T03:00:10.970Z,63.52
2023-05-17T03:01:10.958Z,63.52
2023-05-17T03:02:10.969Z,63.52
2023-05-17T03:03:10.984Z,63.62
2023-05-17T03:04:11.014Z,63.52
2023-05-17T03:05:10.991Z,63.62
2023-05-17T03:06:10.887Z,63.62
2023-05-17T03:07:10.879Z,63.62
2023-05-17T03:08:10.858Z,63.62
2023-05-17T03:09:10.847Z,63.62
2023-05-17T03:10:10.830Z,63.62
2023-05-17T03:11:10.818Z,63.62
2023-05-17T03:12:10.802Z,63.62
2023-05-17T03:13:10.799Z,63.62
2023-05-17T03:14:10.787Z,63.62
2023-05-17T03:15:10.770Z,63.62
2023-05-17T03:16:10.750Z,63.62
2023-05-17T03:17:10.743Z,63.62
2023-05-17T03:18:10.771Z,63.62
2023-05-17T03:19:10.814Z,63.62
2023-05-17T03:20:10.731Z,63.62
2023-05-17T03:21:10.798Z,63.62
2023-05-17T03:22:10.688Z,63.62
2023-05-17T03:23:10.662Z,63.62
2023-05-17T03:24:10.649Z,63.62
2023-05-17T03:25:10.702Z,63.62
2023-05-17T03:26:10.622Z,63.62
2023-05-17T03:27:10.650Z,63.62
2023-05-17T03:28:10.598Z,63.62
2023-05-17T03:29:10.592Z,63.72
2023-05-17T03:30:10.572Z,63.72
2023-05-17T03:31:10.675Z,63.72
2023-05-17T03:32:10.542Z,63.72
2023-05-17T03:33:10.603Z,63.72
2023-05-17T03:34:10.554Z,63.72
2023-05-17T03:35:10.520Z,63.72
2023-05-17T03:36:10.495Z,63.72
2023-05-17T03:37:10.598Z,63.72
2023-05-17T03:38:10.464Z,63.72
2023-05-17T03:39:10.451Z,63.72
2023-05-17T03:40:10.442Z,63.72
2023-05-17T03:41:10.426Z,63.72
2023-05-17T03:42:10.418Z,63.72
2023-05-17T03:43:10.403Z,63.72
2023-05-17T03:44:10.388Z,63.72
2023-05-17T03:45:10.388Z,63.72
2023-05-17T03:46:10.364Z,63.72
2023-05-17T03:47:10.351Z,63.72
2023-05-17T03:48:10.342Z,63.72
2023-05-17T03:49:10.353Z,63.72
2023-05-17T03:50:10.311Z,63.72
2023-05-17T03:51:10.292Z,63.72
2023-05-17T03:52:10.287Z,63.72
2023-05-17T03:53:10.436Z,63.72
2023-05-17T03:54:10.255Z,63.72
2023-05-17T03:55:10.248Z,63.72
2023-05-17T03:56:10.234Z,63.72
2023-05-17T03:57:10.219Z,63.72
2023-05-17T03:58:10.212Z,63.72
2023-05-17T03:59:10.193Z,63.83
2023-05-17T04:00:10.177Z,63.72
2023-05-17T04:01:10.212Z,63.72
2023-05-17T04:02:10.155Z,63.72
2023-05-17T04:03:10.140Z,63.83
2023-05-17T04:04:10.147Z,63.72
2023-05-17T04:05:10.140Z,63.83
2023-05-17T04:06:10.116Z,63.83
2023-05-17T04:07:10.089Z,63.83
2023-05-17T04:08:10.074Z,63.72
2023-05-17T04:09:10.168Z,63.83
2023-05-17T04:10:10.049Z,63.83
2023-05-17T04:11:10.074Z,63.83
2023-05-17T04:12:10.019Z,63.83
2023-05-17T04:13:10.026Z,63.83
2023-05-17T04:14:10.000Z,63.83
2023-05-17T04:15:09.983Z,63.83
2023-05-17T04:16:09.994Z,63.83
2023-05-17T04:17:09.953Z,63.83
2023-05-17T04:18:10.035Z,63.83
2023-05-17T04:19:10.053Z,63.83
2023-05-17T04:20:09.920Z,63.83
2023-05-17T04:21:09.904Z,63.83
2023-05-17T04:22:09.889Z,63.83
2023-05-17T04:23:09.882Z,63.83
2023-05-17T04:24:09.867Z,63.83
2023-05-17T04:25:09.960Z,63.83
2023-05-17T04:26:09.842Z,63.83
2023-05-17T04:27:09.837Z,63.83
2023-05-17T04:28:09.819Z,63.83
2023-05-17T04:29:09.806Z,63.83
2023-05-17T04:30:09.781Z,63.83
2023-05-17T04:31:09.777Z,63.83
2023-05-17T04:32:09.759Z,63.83
2023-05-17T04:33:10.989Z,63.83
2023-05-17T04:34:09.767Z,63.83
2023-05-17T04:35:09.727Z,63.83
2023-05-17T04:36:09.706Z,63.83
2023-05-17T04:37:09.696Z,63.83
2023-05-17T04:38:09.698Z,63.83
2023-05-17T04:39:09.677Z,63.83
2023-05-17T04:40:09.652Z,63.83
2023-05-17T04:41:09.763Z,63.83
2023-05-17T04:42:09.630Z,63.83
2023-05-17T04:43:09.616Z,63.83
2023-05-17T04:44:09.611Z,63.72
2023-05-17T04:45:09.597Z,63.72
2023-05-17T04:46:09.576Z,63.72
2023-05-17T04:47:09.565Z,63.72
2023-05-17T04:48:09.641Z,63.72
2023-05-17T04:49:09.541Z,63.83
2023-05-17T04:50:09.523Z,63.83
2023-05-17T04:51:09.512Z,63.72
2023-05-17T04:52:09.497Z,63.83
2023-05-17T04:53:09.486Z,63.83
2023-05-17T04:54:09.468Z,63.83
2023-05-17T04:55:09.461Z,63.72
2023-05-17T04:56:09.446Z,63.72
2023-05-17T04:57:09.530Z,63.72
2023-05-17T04:58:09.432Z,63.83
2023-05-17T04:59:09.416Z,63.83
2023-05-17T05:00:09.392Z,63.83
2023-05-17T05:01:09.388Z,63.83
2023-05-17T05:02:09.367Z,63.83
2023-05-17T05:03:09.444Z,63.83
2023-05-17T05:04:09.423Z,63.83
2023-05-17T05:05:09.458Z,63.83
2023-05-17T05:06:09.313Z,63.72
2023-05-17T05:07:09.302Z,63.62
2023-05-17T05:08:09.285Z,63.52
2023-05-17T05:09:09.272Z,63.39
2023-05-17T05:10:09.263Z,63.28
2023-05-17T05:11:09.262Z,63.28
2023-05-17T05:12:09.243Z,63.39
2023-05-17T05:13:09.446Z,63.52
2023-05-17T05:14:09.209Z,63.42
2023-05-17T05:15:09.196Z,63.42
2023-05-17T05:16:09.180Z,63.52
2023-05-17T05:17:09.167Z,63.62
2023-05-17T05:18:09.283Z,63.72
2023-05-17T05:19:09.337Z,63.72
2023-05-17T05:20:09.132Z,63.83
2023-05-17T05:21:09.133Z,63.83
2023-05-17T05:22:09.101Z,63.92
2023-05-17T05:23:09.095Z,63.92
2023-05-17T05:24:09.077Z,63.92
2023-05-17T05:25:09.075Z,63.92
2023-05-17T05:26:09.062Z,63.92
2023-05-17T05:27:09.036Z,63.92
2023-05-17T05:28:09.021Z,63.92
2023-05-17T05:29:09.117Z,63.92
2023-05-17T05:30:08.996Z,63.92
2023-05-17T05:31:09.010Z,63.72
2023-05-17T05:32:08.974Z,63.59
2023-05-17T05:33:09.041Z,63.39
2023-05-17T05:34:08.969Z,63.39
2023-05-17T05:35:08.929Z,63.39
2023-05-17T05:36:08.919Z,63.49
2023-05-17T05:37:08.907Z,63.62
2023-05-17T05:38:08.888Z,63.62
2023-05-17T05:39:09.254Z,63.62
2023-05-17T05:40:08.874Z,63.72
2023-05-17T05:41:08.848Z,63.72
2023-05-17T05:42:08.844Z,63.72
2023-05-17T05:43:08.825Z,63.72
2023-05-17T05:44:08.810Z,63.72
2023-05-17T05:45:08.847Z,63.83
2023-05-17T05:46:08.805Z,63.72
2023-05-17T05:47:08.777Z,63.72
2023-05-17T05:48:08.892Z,63.72
2023-05-17T05:49:08.808Z,63.83
2023-05-17T05:50:08.736Z,63.83
2023-05-17T05:51:08.718Z,63.62
2023-05-17T05:52:08.710Z,63.49
2023-05-17T05:53:18.018Z,63.39
2023-05-17T05:54:09.720Z,63.28
2023-05-17T05:55:08.670Z,63.28
2023-05-17T05:56:08.654Z,63.39
2023-05-17T05:57:08.642Z,63.28
2023-05-17T05:58:08.627Z,63.08
2023-05-17T05:59:08.615Z,62.88
2023-05-17T06:00:08.601Z,62.67
2023-05-17T06:01:08.701Z,62.37
2023-05-17T06:02:08.580Z,62.27
2023-05-17T06:03:08.607Z,62.17
2023-05-17T06:04:08.550Z,62.17
2023-05-17T06:05:08.559Z,62.17
2023-05-17T06:06:08.667Z,61.86
2023-05-17T06:07:08.584Z,61.66
2023-05-17T06:08:08.495Z,61.43
2023-05-17T06:09:08.485Z,61.63
2023-05-17T06:10:08.471Z,62.04
2023-05-17T06:11:08.459Z,62.04
2023-05-17T06:12:08.580Z,61.32
2023-05-17T06:13:08.436Z,60.61
2023-05-17T06:14:08.421Z,60.61
2023-05-17T06:15:08.408Z,60.30
2023-05-17T06:16:08.396Z,60.51
2023-05-17T06:17:08.594Z,59.80
2023-05-17T06:18:08.509Z,60.10
2023-05-17T06:19:08.416Z,61.22
2023-05-17T06:20:08.342Z,61.52
2023-05-17T06:21:08.339Z,61.32
2023-05-17T06:22:14.321Z,61.32
2023-05-17T06:23:08.294Z,61.22
2023-05-17T06:24:08.283Z,61.12
2023-05-17T06:25:08.272Z,60.91
2023-05-17T06:26:08.254Z,60.21
2023-05-17T06:27:08.241Z,60.82
2023-05-17T06:28:08.241Z,60.82
2023-05-17T06:29:08.213Z,60.71
2023-05-17T06:30:14.207Z,60.84
2023-05-17T06:31:08.214Z,61.35
2023-05-17T06:32:08.173Z,61.43
2023-05-17T06:33:08.318Z,61.22
2023-05-17T06:34:08.207Z,61.32
2023-05-17T06:35:08.130Z,60.94
2023-05-17T06:36:08.120Z,60.71
2023-05-17T06:37:08.112Z,61.12
2023-05-17T06:38:08.093Z,61.02
2023-05-17T06:39:08.079Z,61.02
2023-05-17T06:40:16.205Z,61.12
2023-05-17T06:41:09.091Z,61.22
2023-05-17T06:42:08.045Z,61.12
2023-05-17T06:43:08.019Z,60.91
2023-05-17T06:44:08.024Z,60.91
2023-05-17T06:45:07.998Z,61.12
2023-05-17T06:46:07.981Z,60.00
2023-05-17T06:47:08.067Z,59.69
2023-05-17T06:48:08.103Z,59.08
2023-05-17T06:49:08.170Z,60.00
2023-05-17T06:50:07.929Z,59.60
2023-05-17T06:51:07.911Z,59.39
2023-05-17T06:52:07.905Z,59.69
2023-05-17T06:53:07.885Z,60.21
2023-05-17T06:54:07.871Z,60.00
2023-05-17T06:55:07.859Z,59.49
2023-05-17T06:56:07.845Z,60.51
2023-05-17T06:57:07.833Z,60.10
2023-05-17T06:58:07.839Z,60.71
2023-05-17T06:59:07.825Z,60.61
2023-05-17T07:00:07.792Z,60.21
2023-05-17T07:01:07.777Z,60.21
2023-05-17T07:02:07.763Z,59.49
2023-05-17T07:03:07.846Z,59.29
2023-05-17T07:04:07.914Z,60.10
2023-05-17T07:05:07.986Z,60.33
2023-05-17T07:06:07.710Z,60.54
2023-05-17T07:07:07.696Z,60.13
2023-05-17T07:08:07.681Z,60.84
2023-05-17T07:09:07.666Z,60.44
2023-05-17T07:10:07.656Z,61.05
2023-05-17T07:11:07.638Z,61.25
2023-05-17T07:12:07.629Z,61.56
2023-05-17T07:13:07.615Z,62.17
2023-05-17T07:14:07.626Z,62.17
2023-05-17T07:15:07.605Z,62.06
2023-05-17T07:16:07.576Z,61.96
2023-05-17T07:17:07.566Z,61.56
2023-05-17T07:18:07.648Z,61.96
2023-05-17T07:19:07.629Z,62.17
2023-05-17T07:20:07.546Z,61.68
2023-05-17T07:21:07.826Z,61.99
2023-05-17T07:22:07.499Z,62.09
2023-05-17T07:23:07.497Z,62.20
2023-05-17T07:24:07.475Z,62.20
2023-05-17T07:25:07.569Z,62.29
2023-05-17T07:26:07.444Z,62.29
2023-05-17T07:27:07.427Z,62.29
2023-05-17T07:28:07.419Z,62.29
2023-05-17T07:29:07.402Z,62.29
2023-05-17T07:30:07.387Z,62.40
2023-05-17T07:31:07.382Z,62.29
2023-05-17T07:32:07.365Z,62.29
2023-05-17T07:33:07.452Z,62.29
2023-05-17T07:34:07.376Z,62.29
2023-05-17T07:35:07.325Z,62.20
2023-05-17T07:36:07.350Z,62.20
2023-05-17T07:37:07.435Z,61.96
2023-05-17T07:38:07.283Z,61.96
2023-05-17T07:39:07.288Z,61.99
2023-05-17T07:40:07.270Z,61.96
2023-05-17T07:41:07.260Z,61.86
2023-05-17T07:42:07.246Z,61.45
2023-05-17T07:43:07.217Z,61.56
2023-05-17T07:44:07.223Z,61.35
2023-05-17T07:45:07.203Z,61.45
2023-05-17T07:46:07.179Z,61.35
2023-05-17T07:47:07.250Z,61.45
2023-05-17T07:48:07.256Z,61.35
2023-05-17T07:49:07.319Z,61.45
2023-05-17T07:50:07.151Z,61.45
2023-05-17T07:51:07.109Z,61.45
2023-05-17T07:52:07.101Z,61.35
2023-05-17T07:53:07.349Z,61.35
2023-05-17T07:54:07.075Z,61.15
2023-05-17T07:55:07.066Z,61.25
2023-05-17T07:56:07.051Z,61.25
2023-05-17T07:57:07.036Z,61.15
2023-05-17T07:58:07.021Z,61.15
2023-05-17T07:59:07.018Z,60.94
2023-05-17T08:00:06.993Z,61.05
2023-05-17T08:01:06.979Z,61.15
2023-05-17T08:02:06.967Z,60.94
2023-05-17T08:03:07.029Z,60.64
2023-05-17T08:04:06.989Z,60.84
2023-05-17T08:05:06.931Z,60.94
2023-05-17T08:06:07.027Z,60.74
2023-05-17T08:07:06.915Z,60.54
2023-05-17T08:08:06.907Z,60.44
2023-05-17T08:09:06.977Z,60.64
2023-05-17T08:10:06.877Z,60.64
2023-05-17T08:11:06.850Z,60.74
2023-05-17T08:12:06.837Z,60.74
2023-05-17T08:13:06.832Z,60.74
2023-05-17T08:14:06.820Z,60.74
2023-05-17T08:15:06.794Z,60.84
2023-05-17T08:16:13.564Z,60.74
2023-05-17T08:17:07.827Z,60.74
2023-05-17T08:18:06.910Z,60.64
2023-05-17T08:19:06.804Z,60.74
2023-05-17T08:20:06.863Z,60.74
2023-05-17T08:21:06.721Z,60.74
2023-05-17T08:22:06.709Z,60.84
2023-05-17T08:23:06.689Z,60.84
2023-05-17T08:24:06.681Z,60.74
2023-05-17T08:25:06.687Z,60.74
2023-05-17T08:26:06.667Z,60.74
2023-05-17T08:27:06.638Z,60.74
2023-05-17T08:28:06.623Z,60.74
2023-05-17T08:29:06.624Z,60.54
2023-05-17T08:30:09.224Z,60.44
2023-05-17T08:31:06.586Z,60.44
2023-05-17T08:32:06.570Z,60.44
2023-05-17T08:36:05.785Z,60.30
2023-05-17T08:37:11.828Z,60.21
2023-05-17T08:38:11.765Z,60.10
2023-05-17T08:39:11.744Z,59.80
2023-05-17T08:40:11.962Z,60.00
2023-05-17T08:41:05.712Z,58.78
2023-05-17T08:42:05.697Z,59.69
2023-05-17T08:43:05.684Z,59.49
2023-05-17T08:44:05.679Z,59.60
2023-05-17T08:45:05.667Z,60.00
2023-05-17T08:46:05.641Z,60.00
2023-05-17T08:47:05.632Z,60.00
2023-05-17T08:48:05.667Z,60.00
2023-05-17T08:49:05.660Z,59.60
2023-05-17T08:50:05.594Z,59.69
2023-05-17T08:51:05.579Z,59.08
2023-05-17T08:52:05.558Z,58.99
2023-05-17T08:53:05.599Z,59.80
2023-05-17T08:54:05.539Z,58.17
2023-05-17T08:55:05.518Z,57.56
2023-05-17T08:56:05.535Z,57.56
2023-05-17T08:57:05.499Z,59.60
2023-05-17T08:58:05.489Z,59.80
2023-05-17T08:59:05.476Z,58.47
2023-05-17T09:00:05.457Z,58.38
2023-05-17T09:01:05.442Z,59.69
2023-05-17T09:02:05.426Z,58.88
2023-05-17T09:03:05.523Z,59.22
2023-05-17T09:04:05.536Z,59.93
2023-05-17T09:05:05.503Z,59.32
2023-05-17T09:06:05.393Z,58.30
2023-05-17T09:07:05.408Z,58.61
2023-05-17T09:08:05.345Z,57.38
2023-05-17T09:09:05.331Z,58.38
2023-05-17T09:10:05.316Z,58.78
2023-05-17T09:11:05.322Z,59.49
2023-05-17T09:12:05.340Z,58.27
2023-05-17T09:13:05.283Z,59.39
2023-05-17T09:14:05.285Z,58.38
2023-05-17T09:15:05.261Z,58.99
2023-05-17T09:16:05.239Z,59.19
2023-05-17T09:17:05.231Z,59.19
2023-05-17T09:18:05.340Z,59.19
2023-05-17T09:19:05.574Z,58.78
2023-05-17T09:20:05.237Z,58.68
2023-05-17T09:21:05.175Z,57.15
2023-05-17T09:22:05.168Z,56.85
2023-05-17T09:23:05.150Z,57.66
2023-05-17T09:24:07.841Z,56.75
2023-05-17T09:25:05.128Z,58.07
2023-05-17T09:26:05.127Z,58.27
2023-05-17T09:27:05.098Z,57.86
2023-05-17T09:28:05.127Z,57.25
2023-05-17T09:29:05.072Z,57.25
2023-05-17T09:30:05.056Z,58.27
2023-05-17T09:31:05.041Z,56.24
2023-05-17T09:32:05.024Z,55.93
2023-05-17T09:33:05.015Z,56.14
2023-05-17T09:34:05.073Z,57.56
2023-05-17T09:35:04.985Z,57.15
2023-05-17T09:36:04.964Z,55.32
2023-05-17T09:37:04.955Z,56.03
2023-05-17T09:38:04.940Z,57.05
2023-05-17T09:39:04.931Z,57.86
2023-05-17T09:40:04.914Z,57.76
2023-05-17T09:41:04.907Z,58.17
2023-05-17T09:42:04.901Z,56.85
2023-05-17T09:43:04.876Z,57.15
2023-05-17T09:44:05.033Z,57.36
2023-05-17T09:45:04.845Z,57.86
2023-05-17T09:46:04.833Z,58.17
2023-05-17T09:47:04.823Z,57.97
2023-05-17T09:48:04.867Z,58.17
2023-05-17T09:49:05.048Z,58.17
2023-05-17T09:50:04.792Z,58.07
2023-05-17T09:51:04.797Z,57.05
2023-05-17T09:52:04.753Z,53.90
2023-05-17T09:53:04.742Z,55.52
2023-05-17T09:54:04.925Z,55.73
2023-05-17T09:55:04.715Z,54.10
2023-05-17T09:56:04.706Z,57.25
2023-05-17T09:57:04.684Z,57.05
2023-05-17T09:58:04.686Z,55.93
2023-05-17T09:59:04.697Z,54.91
2023-05-17T10:00:04.668Z,55.83
2023-05-17T10:01:04.643Z,54.91
2023-05-17T10:02:04.616Z,53.59
2023-05-17T10:03:04.704Z,57.46
2023-05-17T10:04:04.785Z,54.91
2023-05-17T10:05:04.613Z,54.91
2023-05-17T10:06:04.567Z,57.36
2023-05-17T10:07:04.548Z,56.95
2023-05-17T10:08:04.531Z,54.41
2023-05-17T10:09:04.527Z,54.10
2023-05-17T10:10:04.507Z,54.00
2023-05-17T10:11:04.499Z,51.86
2023-05-17T10:12:04.478Z,51.05
2023-05-17T10:13:04.472Z,51.66
2023-05-17T10:14:04.460Z,51.77
2023-05-17T10:15:04.502Z,51.56
2023-05-17T10:16:04.514Z,52.67
2023-05-17T10:17:04.412Z,52.58
2023-05-17T10:18:04.508Z,52.67
2023-05-17T10:19:04.440Z,52.58
2023-05-17T10:20:04.621Z,56.64
2023-05-17T10:21:04.363Z,54.91
2023-05-17T10:22:21.188Z,55.12
2023-05-17T10:23:05.368Z,53.90
2023-05-17T10:24:04.334Z,53.90
2023-05-17T10:25:04.313Z,55.30
2023-05-17T10:26:04.286Z,53.97
2023-05-17T10:27:04.279Z,52.45
2023-05-17T10:28:04.260Z,52.07
2023-05-17T10:29:04.250Z,55.83
2023-05-17T10:30:04.241Z,54.30
2023-05-17T10:31:04.227Z,53.90
2023-05-17T10:32:04.232Z,51.77
2023-05-17T10:33:04.335Z,51.46
2023-05-17T10:34:04.223Z,52.37
2023-05-17T10:35:11.131Z,52.37
2023-05-17T10:36:05.198Z,55.32
2023-05-17T10:37:04.141Z,55.83
2023-05-17T10:38:04.124Z,55.32
2023-05-17T10:39:04.111Z,56.75
2023-05-17T10:40:04.099Z,53.39
2023-05-17T10:41:04.091Z,51.46
2023-05-17T10:42:14.402Z,52.07
2023-05-17T10:43:05.097Z,52.75
2023-05-17T10:44:04.041Z,52.96
2023-05-17T10:45:04.028Z,52.86
2023-05-17T10:46:04.038Z,51.94
2023-05-17T10:47:04.013Z,51.23
2023-05-17T10:48:04.041Z,52.55
2023-05-17T10:49:04.045Z,51.94
2023-05-17T10:50:03.954Z,51.97
2023-05-17T10:51:03.945Z,51.97
2023-05-17T10:52:03.931Z,52.17
2023-05-17T10:53:03.917Z,49.93
2023-05-17T10:54:03.900Z,56.24
2023-05-17T10:55:03.893Z,53.16
2023-05-17T10:56:03.879Z,52.45
2023-05-17T10:57:03.875Z,53.16
2023-05-17T10:58:03.848Z,52.14
2023-05-17T10:59:03.849Z,51.94
2023-05-17T11:00:03.828Z,51.74
2023-05-17T11:01:03.814Z,50.92
2023-05-17T11:02:03.794Z,50.11
2023-05-17T11:03:03.855Z,50.52
2023-05-17T11:04:03.803Z,50.72
2023-05-17T11:05:03.887Z,49.60
2023-05-17T11:06:03.891Z,50.31
2023-05-17T11:07:05.569Z,49.73
2023-05-17T11:08:03.712Z,52.47
2023-05-17T11:09:03.697Z,49.73
2023-05-17T11:10:03.695Z,48.91
2023-05-17T11:11:03.668Z,52.07
2023-05-17T11:12:03.654Z,55.02
2023-05-17T11:13:03.643Z,55.50
2023-05-17T11:14:03.644Z,54.48
2023-05-17T11:15:03.988Z,52.34
2023-05-17T11:16:03.605Z,51.74
2023-05-17T11:17:03.592Z,52.05
2023-05-17T11:18:03.719Z,53.26
2023-05-17T11:19:03.718Z,53.57
2023-05-17T11:20:03.886Z,51.74
2023-05-17T11:21:03.621Z,51.44
2023-05-17T11:22:03.519Z,50.42
2023-05-17T11:23:03.506Z,50.01
2023-05-17T11:24:03.494Z,51.13
2023-05-17T11:25:03.494Z,53.97
2023-05-17T11:26:15.284Z,51.84
2023-05-17T11:27:04.507Z,51.53
2023-05-17T11:28:03.490Z,50.92
2023-05-17T11:29:03.447Z,54.38
2023-05-17T11:30:03.431Z,51.64
2023-05-17T11:31:03.427Z,50.92
2023-05-17T11:32:03.402Z,53.87
2023-05-17T11:33:03.719Z,53.06
2023-05-17T11:34:03.452Z,52.65
2023-05-17T11:35:03.350Z,50.92
2023-05-17T11:36:03.448Z,51.23
2023-05-17T11:37:03.323Z,50.83
2023-05-17T11:38:03.304Z,49.70
2023-05-17T11:39:08.092Z,51.44
2023-05-17T11:40:03.301Z,51.53
2023-05-17T11:41:04.693Z,51.13
2023-05-17T11:42:03.249Z,51.03
2023-05-17T11:43:03.238Z,50.31
2023-05-17T11:44:03.228Z,50.52
2023-05-17T11:45:03.210Z,50.21
2023-05-17T11:46:03.196Z,50.21
2023-05-17T11:47:03.252Z,50.11
2023-05-17T11:48:03.238Z,50.42
2023-05-17T11:49:03.162Z,51.53
2023-05-17T11:50:03.167Z,50.92
2023-05-17T11:51:03.152Z,51.33
2023-05-17T11:52:03.138Z,50.31
2023-05-17T11:53:03.105Z,50.92
2023-05-17T11:54:03.083Z,51.23
2023-05-17T11:55:03.089Z,52.05
2023-05-17T11:56:03.081Z,52.05
2023-05-17T11:57:03.043Z,51.84
2023-05-17T11:58:03.078Z,51.74
2023-05-17T11:59:03.030Z,51.94
2023-05-17T12:00:02.999Z,51.84
2023-05-17T12:01:03.030Z,51.33
2023-05-17T12:02:02.981Z,49.91
2023-05-17T12:03:03.004Z,50.01
2023-05-17T12:04:03.087Z,50.62
2023-05-17T12:05:03.221Z,49.81
2023-05-17T12:06:02.994Z,48.89
2023-05-17T12:07:02.914Z,48.18
2023-05-17T12:08:02.923Z,48.79
2023-05-17T12:09:02.894Z,53.16
2023-05-17T12:10:02.864Z,52.55
2023-05-17T12:11:02.858Z,51.94
2023-05-17T12:12:02.836Z,51.84
2023-05-17T12:13:02.826Z,50.92
2023-05-17T12:14:02.815Z,51.64
2023-05-17T12:15:02.800Z,51.44
2023-05-17T12:16:02.786Z,50.52
2023-05-17T12:17:02.769Z,52.25
2023-05-17T12:18:02.876Z,49.81
2023-05-17T12:19:02.898Z,52.05
2023-05-17T12:20:02.814Z,51.13
2023-05-17T12:21:02.723Z,49.40
2023-05-17T12:22:02.706Z,50.52
2023-05-17T12:23:02.689Z,50.21
2023-05-17T12:24:02.746Z,49.91
2023-05-17T12:25:02.662Z,49.20
2023-05-17T12:26:02.654Z,50.34
2023-05-17T12:27:02.648Z,49.63
2023-05-17T12:28:02.617Z,49.42
2023-05-17T12:29:02.611Z,49.73
2023-05-17T12:30:02.592Z,50.46
2023-05-17T12:31:02.589Z,51.86
2023-05-17T12:32:02.568Z,50.03
2023-05-17T12:33:02.620Z,53.08
2023-05-17T12:34:03.042Z,52.78
2023-05-17T12:35:02.522Z,53.69
2023-05-17T12:36:02.512Z,53.67
2023-05-17T12:37:02.490Z,51.33
2023-05-17T12:38:02.486Z,52.65
2023-05-17T12:39:02.473Z,53.26
2023-05-17T12:40:02.493Z,53.97
2023-05-17T12:41:02.438Z,50.83
2023-05-17T12:42:02.425Z,50.72
2023-05-17T12:43:02.407Z,51.03
2023-05-17T12:45:02.430Z,49.70
2023-05-17T12:46:03.785Z,52.34
2023-05-17T12:47:02.361Z,51.44
2023-05-17T12:48:02.409Z,49.60
2023-05-17T12:49:02.392Z,49.30
2023-05-17T12:50:02.322Z,50.21
2023-05-17T12:51:02.298Z,49.60
2023-05-17T12:52:02.290Z,51.53
2023-05-17T12:53:02.275Z,51.33
2023-05-17T12:54:02.268Z,53.47
2023-05-17T12:55:02.244Z,52.25
2023-05-17T12:56:02.268Z,51.44
2023-05-17T12:57:02.217Z,51.94
2023-05-17T12:58:02.206Z,50.72
2023-05-17T12:59:02.189Z,49.40